sensor_id;sensor_type;location;lat;lon;timestamp;P1;durP1;ratioP1;P2;durP2;ratioP2
69244;SDS011;56357;52.304;4.870;2023-12-20T00:02:01;7.10;;;1.70;;
69244;SDS011;56357;52.304;4.870;2023-12-20T00:04:28;6.40;;;1.60;;
69244;SDS011;56357;52.304;4.870;2023-12-20T00:06:55;5.82;;;1.23;;
69244;SDS011;56357;52.304;4.870;2023-12-20T00:09:21;7.97;;;1.75;;
69244;SDS011;56357;52.304;4.870;2023-12-20T00:11:47;8.67;;;1.40;;
69244;SDS011;56357;52.304;4.870;2023-12-20T00:14:14;6.85;;;1.42;;
69244;SDS011;56357;52.304;4.870;2023-12-20T00:16:40;10.80;;;1.73;;
69244;SDS011;56357;52.304;4.870;2023-12-20T00:19:07;7.20;;;1.58;;
69244;SDS011;56357;52.304;4.870;2023-12-20T00:21:33;6.65;;;1.77;;
69244;SDS011;56357;52.304;4.870;2023-12-20T00:23:59;8.17;;;1.43;;
69244;SDS011;56357;52.304;4.870;2023-12-20T00:26:26;8.25;;;1.30;;
69244;SDS011;56357;52.304;4.870;2023-12-20T00:28:53;5.45;;;0.93;;
69244;SDS011;56357;52.304;4.870;2023-12-20T00:31:20;10.98;;;1.67;;
69244;SDS011;56357;52.304;4.870;2023-12-20T00:33:46;7.97;;;1.52;;
69244;SDS011;56357;52.304;4.870;2023-12-20T00:36:13;9.20;;;1.67;;
69244;SDS011;56357;52.304;4.870;2023-12-20T00:38:39;10.45;;;1.70;;
69244;SDS011;56357;52.304;4.870;2023-12-20T00:41:06;6.15;;;1.45;;
69244;SDS011;56357;52.304;4.870;2023-12-20T00:43:32;6.72;;;1.60;;
69244;SDS011;56357;52.304;4.870;2023-12-20T00:45:59;9.57;;;1.60;;
69244;SDS011;56357;52.304;4.870;2023-12-20T00:48:25;10.07;;;1.90;;
69244;SDS011;56357;52.304;4.870;2023-12-20T00:50:53;10.10;;;1.92;;
69244;SDS011;56357;52.304;4.870;2023-12-20T00:53:20;6.22;;;1.08;;
69244;SDS011;56357;52.304;4.870;2023-12-20T00:55:46;8.07;;;1.40;;
69244;SDS011;56357;52.304;4.870;2023-12-20T00:58:13;10.50;;;1.48;;
69244;SDS011;56357;52.304;4.870;2023-12-20T01:00:40;9.37;;;1.93;;
69244;SDS011;56357;52.304;4.870;2023-12-20T01:03:08;7.80;;;1.52;;
69244;SDS011;56357;52.304;4.870;2023-12-20T01:05:34;8.63;;;1.55;;
69244;SDS011;56357;52.304;4.870;2023-12-20T01:08:01;6.50;;;1.63;;
69244;SDS011;56357;52.304;4.870;2023-12-20T01:10:28;12.98;;;1.75;;
69244;SDS011;56357;52.304;4.870;2023-12-20T01:12:54;7.20;;;1.40;;
69244;SDS011;56357;52.304;4.870;2023-12-20T01:15:21;11.68;;;2.00;;
69244;SDS011;56357;52.304;4.870;2023-12-20T01:17:48;7.22;;;1.20;;
69244;SDS011;56357;52.304;4.870;2023-12-20T01:20:14;6.68;;;1.73;;
69244;SDS011;56357;52.304;4.870;2023-12-20T01:22:42;9.75;;;1.88;;
69244;SDS011;56357;52.304;4.870;2023-12-20T01:25:10;9.47;;;1.40;;
69244;SDS011;56357;52.304;4.870;2023-12-20T01:27:37;7.57;;;1.38;;
69244;SDS011;56357;52.304;4.870;2023-12-20T01:30:04;9.10;;;1.30;;
69244;SDS011;56357;52.304;4.870;2023-12-20T01:32:31;9.10;;;1.70;;
69244;SDS011;56357;52.304;4.870;2023-12-20T01:34:57;8.60;;;1.98;;
69244;SDS011;56357;52.304;4.870;2023-12-20T01:37:23;8.17;;;1.63;;
69244;SDS011;56357;52.304;4.870;2023-12-20T01:39:51;9.77;;;1.42;;
69244;SDS011;56357;52.304;4.870;2023-12-20T01:42:18;13.30;;;1.95;;
69244;SDS011;56357;52.304;4.870;2023-12-20T01:44:44;7.22;;;1.67;;
69244;SDS011;56357;52.304;4.870;2023-12-20T01:47:12;8.48;;;1.35;;
69244;SDS011;56357;52.304;4.870;2023-12-20T01:49:39;9.40;;;1.50;;
69244;SDS011;56357;52.304;4.870;2023-12-20T01:52:06;10.50;;;2.00;;
69244;SDS011;56357;52.304;4.870;2023-12-20T01:54:33;8.02;;;1.67;;
69244;SDS011;56357;52.304;4.870;2023-12-20T01:57:01;10.40;;;1.55;;
69244;SDS011;56357;52.304;4.870;2023-12-20T01:59:28;7.80;;;1.27;;
69244;SDS011;56357;52.304;4.870;2023-12-20T02:01:55;9.43;;;1.40;;
69244;SDS011;56357;52.304;4.870;2023-12-20T02:04:22;11.35;;;1.15;;
69244;SDS011;56357;52.304;4.870;2023-12-20T02:06:49;8.13;;;1.17;;
69244;SDS011;56357;52.304;4.870;2023-12-20T02:09:18;11.13;;;1.35;;
69244;SDS011;56357;52.304;4.870;2023-12-20T02:11:45;10.20;;;1.33;;
69244;SDS011;56357;52.304;4.870;2023-12-20T02:14:12;8.07;;;1.57;;
69244;SDS011;56357;52.304;4.870;2023-12-20T02:16:38;7.50;;;1.30;;
69244;SDS011;56357;52.304;4.870;2023-12-20T02:19:05;6.82;;;1.40;;
69244;SDS011;56357;52.304;4.870;2023-12-20T02:21:39;9.43;;;1.50;;
69244;SDS011;56357;52.304;4.870;2023-12-20T02:24:05;9.23;;;1.23;;
69244;SDS011;56357;52.304;4.870;2023-12-20T02:26:32;9.03;;;1.43;;
69244;SDS011;56357;52.304;4.870;2023-12-20T02:29:00;10.07;;;1.88;;
69244;SDS011;56357;52.304;4.870;2023-12-20T02:31:27;6.75;;;1.70;;
69244;SDS011;56357;52.304;4.870;2023-12-20T02:33:53;10.02;;;1.63;;
69244;SDS011;56357;52.304;4.870;2023-12-20T02:36:20;7.95;;;1.75;;
69244;SDS011;56357;52.304;4.870;2023-12-20T02:38:46;7.33;;;1.33;;
69244;SDS011;56357;52.304;4.870;2023-12-20T02:41:13;9.80;;;1.38;;
69244;SDS011;56357;52.304;4.870;2023-12-20T02:43:41;7.80;;;1.25;;
69244;SDS011;56357;52.304;4.870;2023-12-20T02:46:09;11.80;;;1.75;;
69244;SDS011;56357;52.304;4.870;2023-12-20T02:48:35;7.82;;;1.35;;
69244;SDS011;56357;52.304;4.870;2023-12-20T02:51:01;8.83;;;1.40;;
69244;SDS011;56357;52.304;4.870;2023-12-20T02:53:28;10.27;;;1.48;;
69244;SDS011;56357;52.304;4.870;2023-12-20T02:55:55;8.18;;;1.25;;
69244;SDS011;56357;52.304;4.870;2023-12-20T02:58:21;7.00;;;1.83;;
69244;SDS011;56357;52.304;4.870;2023-12-20T03:00:50;8.18;;;1.08;;
69244;SDS011;56357;52.304;4.870;2023-12-20T03:03:17;12.23;;;1.93;;
69244;SDS011;56357;52.304;4.870;2023-12-20T03:05:44;6.90;;;1.00;;
69244;SDS011;56357;52.304;4.870;2023-12-20T03:08:12;12.13;;;1.30;;
69244;SDS011;56357;52.304;4.870;2023-12-20T03:10:38;8.77;;;1.45;;
69244;SDS011;56357;52.304;4.870;2023-12-20T03:13:05;9.25;;;1.20;;
69244;SDS011;56357;52.304;4.870;2023-12-20T03:15:31;7.87;;;1.33;;
69244;SDS011;56357;52.304;4.870;2023-12-20T03:17:58;7.50;;;1.00;;
69244;SDS011;56357;52.304;4.870;2023-12-20T03:20:24;10.02;;;1.52;;
69244;SDS011;56357;52.304;4.870;2023-12-20T03:22:52;12.95;;;1.60;;
69244;SDS011;56357;52.304;4.870;2023-12-20T03:25:18;9.68;;;1.30;;
69244;SDS011;56357;52.304;4.870;2023-12-20T03:27:44;8.37;;;1.47;;
69244;SDS011;56357;52.304;4.870;2023-12-20T03:30:11;6.78;;;0.90;;
69244;SDS011;56357;52.304;4.870;2023-12-20T03:32:38;9.00;;;1.63;;
69244;SDS011;56357;52.304;4.870;2023-12-20T03:35:05;8.80;;;1.60;;
69244;SDS011;56357;52.304;4.870;2023-12-20T03:37:32;6.43;;;1.40;;
69244;SDS011;56357;52.304;4.870;2023-12-20T03:39:58;9.03;;;1.53;;
69244;SDS011;56357;52.304;4.870;2023-12-20T03:42:25;7.63;;;1.30;;
69244;SDS011;56357;52.304;4.870;2023-12-20T03:44:52;7.28;;;1.13;;
69244;SDS011;56357;52.304;4.870;2023-12-20T03:47:19;7.72;;;0.98;;
69244;SDS011;56357;52.304;4.870;2023-12-20T03:49:45;6.60;;;1.25;;
69244;SDS011;56357;52.304;4.870;2023-12-20T03:52:12;10.27;;;1.20;;
69244;SDS011;56357;52.304;4.870;2023-12-20T03:54:38;7.78;;;1.63;;
69244;SDS011;56357;52.304;4.870;2023-12-20T03:57:07;9.95;;;1.17;;
69244;SDS011;56357;52.304;4.870;2023-12-20T03:59:34;10.23;;;1.30;;
69244;SDS011;56357;52.304;4.870;2023-12-20T04:02:02;7.88;;;0.95;;
69244;SDS011;56357;52.304;4.870;2023-12-20T04:04:29;8.33;;;1.03;;
69244;SDS011;56357;52.304;4.870;2023-12-20T04:06:56;8.23;;;1.63;;
69244;SDS011;56357;52.304;4.870;2023-12-20T04:09:22;13.43;;;1.35;;
69244;SDS011;56357;52.304;4.870;2023-12-20T04:11:49;8.13;;;1.30;;
69244;SDS011;56357;52.304;4.870;2023-12-20T04:14:15;7.40;;;1.27;;
69244;SDS011;56357;52.304;4.870;2023-12-20T04:16:41;8.73;;;1.20;;
69244;SDS011;56357;52.304;4.870;2023-12-20T04:19:08;7.50;;;1.63;;
69244;SDS011;56357;52.304;4.870;2023-12-20T04:21:34;10.82;;;1.40;;
69244;SDS011;56357;52.304;4.870;2023-12-20T04:24:01;11.07;;;1.40;;
69244;SDS011;56357;52.304;4.870;2023-12-20T04:26:27;8.15;;;1.42;;
69244;SDS011;56357;52.304;4.870;2023-12-20T04:28:54;9.03;;;1.10;;
69244;SDS011;56357;52.304;4.870;2023-12-20T04:31:21;12.82;;;1.75;;
69244;SDS011;56357;52.304;4.870;2023-12-20T04:33:47;11.70;;;1.75;;
69244;SDS011;56357;52.304;4.870;2023-12-20T04:36:14;11.93;;;1.60;;
69244;SDS011;56357;52.304;4.870;2023-12-20T04:38:41;6.07;;;1.02;;
69244;SDS011;56357;52.304;4.870;2023-12-20T04:41:07;8.20;;;1.13;;
69244;SDS011;56357;52.304;4.870;2023-12-20T04:43:34;10.63;;;1.42;;
69244;SDS011;56357;52.304;4.870;2023-12-20T04:46:01;7.13;;;1.20;;
69244;SDS011;56357;52.304;4.870;2023-12-20T04:48:28;5.72;;;1.30;;
69244;SDS011;56357;52.304;4.870;2023-12-20T04:50:55;8.07;;;1.52;;
69244;SDS011;56357;52.304;4.870;2023-12-20T04:53:21;8.57;;;1.23;;
69244;SDS011;56357;52.304;4.870;2023-12-20T04:55:48;9.40;;;1.23;;
69244;SDS011;56357;52.304;4.870;2023-12-20T04:58:14;10.50;;;1.58;;
69244;SDS011;56357;52.304;4.870;2023-12-20T05:00:41;9.68;;;1.33;;
69244;SDS011;56357;52.304;4.870;2023-12-20T05:03:08;7.28;;;1.67;;
69244;SDS011;56357;52.304;4.870;2023-12-20T05:05:34;10.43;;;1.83;;
69244;SDS011;56357;52.304;4.870;2023-12-20T05:08:01;8.73;;;1.27;;
69244;SDS011;56357;52.304;4.870;2023-12-20T05:10:29;9.95;;;1.95;;
69244;SDS011;56357;52.304;4.870;2023-12-20T05:12:55;5.57;;;1.23;;
69244;SDS011;56357;52.304;4.870;2023-12-20T05:15:21;8.18;;;1.70;;
69244;SDS011;56357;52.304;4.870;2023-12-20T05:17:48;9.67;;;1.77;;
69244;SDS011;56357;52.304;4.870;2023-12-20T05:20:14;8.25;;;1.33;;
69244;SDS011;56357;52.304;4.870;2023-12-20T05:22:42;10.68;;;1.63;;
69244;SDS011;56357;52.304;4.870;2023-12-20T05:25:10;9.32;;;1.40;;
69244;SDS011;56357;52.304;4.870;2023-12-20T05:27:36;13.93;;;1.70;;
69244;SDS011;56357;52.304;4.870;2023-12-20T05:30:03;7.20;;;1.00;;
69244;SDS011;56357;52.304;4.870;2023-12-20T05:32:30;6.63;;;1.40;;
69244;SDS011;56357;52.304;4.870;2023-12-20T05:34:56;10.45;;;1.48;;
69244;SDS011;56357;52.304;4.870;2023-12-20T05:37:23;7.95;;;1.45;;
69244;SDS011;56357;52.304;4.870;2023-12-20T05:39:49;6.18;;;1.25;;
69244;SDS011;56357;52.304;4.870;2023-12-20T05:42:16;15.63;;;1.87;;
69244;SDS011;56357;52.304;4.870;2023-12-20T05:44:42;6.32;;;1.33;;
69244;SDS011;56357;52.304;4.870;2023-12-20T05:47:09;9.32;;;1.30;;
69244;SDS011;56357;52.304;4.870;2023-12-20T05:49:35;7.60;;;1.13;;
69244;SDS011;56357;52.304;4.870;2023-12-20T05:52:02;10.00;;;1.50;;
69244;SDS011;56357;52.304;4.870;2023-12-20T05:54:31;10.47;;;1.87;;
69244;SDS011;56357;52.304;4.870;2023-12-20T05:56:57;11.45;;;1.00;;
69244;SDS011;56357;52.304;4.870;2023-12-20T05:59:24;10.38;;;1.48;;
69244;SDS011;56357;52.304;4.870;2023-12-20T06:01:50;12.18;;;1.45;;
69244;SDS011;56357;52.304;4.870;2023-12-20T06:04:17;8.60;;;1.45;;
69244;SDS011;56357;52.304;4.870;2023-12-20T06:06:43;7.73;;;1.60;;
69244;SDS011;56357;52.304;4.870;2023-12-20T06:09:10;9.93;;;1.20;;
69244;SDS011;56357;52.304;4.870;2023-12-20T06:11:37;9.23;;;1.30;;
69244;SDS011;56357;52.304;4.870;2023-12-20T06:14:07;12.40;;;1.52;;
69244;SDS011;56357;52.304;4.870;2023-12-20T06:16:33;11.60;;;2.00;;
69244;SDS011;56357;52.304;4.870;2023-12-20T06:19:05;12.90;;;1.83;;
69244;SDS011;56357;52.304;4.870;2023-12-20T06:21:32;11.23;;;1.65;;
69244;SDS011;56357;52.304;4.870;2023-12-20T06:23:59;10.82;;;1.60;;
69244;SDS011;56357;52.304;4.870;2023-12-20T06:26:28;8.02;;;1.38;;
69244;SDS011;56357;52.304;4.870;2023-12-20T06:28:54;11.32;;;1.20;;
69244;SDS011;56357;52.304;4.870;2023-12-20T06:31:23;13.43;;;1.60;;
69244;SDS011;56357;52.304;4.870;2023-12-20T06:33:50;9.77;;;1.08;;
69244;SDS011;56357;52.304;4.870;2023-12-20T06:36:22;8.15;;;1.23;;
69244;SDS011;56357;52.304;4.870;2023-12-20T06:38:49;10.52;;;2.30;;
69244;SDS011;56357;52.304;4.870;2023-12-20T06:41:16;9.30;;;1.75;;
69244;SDS011;56357;52.304;4.870;2023-12-20T06:43:43;9.17;;;1.20;;
69244;SDS011;56357;52.304;4.870;2023-12-20T06:46:10;11.50;;;1.95;;
69244;SDS011;56357;52.304;4.870;2023-12-20T06:48:38;9.90;;;1.45;;
69244;SDS011;56357;52.304;4.870;2023-12-20T06:51:05;13.70;;;2.00;;
69244;SDS011;56357;52.304;4.870;2023-12-20T06:53:31;15.15;;;1.90;;
69244;SDS011;56357;52.304;4.870;2023-12-20T06:55:58;11.13;;;1.80;;
69244;SDS011;56357;52.304;4.870;2023-12-20T06:58:24;11.02;;;1.38;;
69244;SDS011;56357;52.304;4.870;2023-12-20T07:00:51;14.95;;;2.03;;
69244;SDS011;56357;52.304;4.870;2023-12-20T07:03:17;10.50;;;1.65;;
69244;SDS011;56357;52.304;4.870;2023-12-20T07:05:43;12.60;;;1.40;;
69244;SDS011;56357;52.304;4.870;2023-12-20T07:08:11;10.20;;;1.65;;
69244;SDS011;56357;52.304;4.870;2023-12-20T07:10:39;11.05;;;1.42;;
69244;SDS011;56357;52.304;4.870;2023-12-20T07:13:05;10.13;;;1.40;;
69244;SDS011;56357;52.304;4.870;2023-12-20T07:15:32;13.38;;;1.95;;
69244;SDS011;56357;52.304;4.870;2023-12-20T07:17:59;11.90;;;1.90;;
69244;SDS011;56357;52.304;4.870;2023-12-20T07:20:26;11.98;;;1.67;;
69244;SDS011;56357;52.304;4.870;2023-12-20T07:22:53;9.40;;;1.50;;
69244;SDS011;56357;52.304;4.870;2023-12-20T07:25:19;12.98;;;1.67;;
69244;SDS011;56357;52.304;4.870;2023-12-20T07:27:46;16.88;;;1.88;;
69244;SDS011;56357;52.304;4.870;2023-12-20T07:30:12;20.03;;;3.87;;
69244;SDS011;56357;52.304;4.870;2023-12-20T07:32:39;13.80;;;1.95;;
69244;SDS011;56357;52.304;4.870;2023-12-20T07:35:05;10.45;;;1.77;;
69244;SDS011;56357;52.304;4.870;2023-12-20T07:37:32;13.13;;;1.80;;
69244;SDS011;56357;52.304;4.870;2023-12-20T07:39:58;10.95;;;1.52;;
69244;SDS011;56357;52.304;4.870;2023-12-20T07:42:25;13.90;;;1.43;;
69244;SDS011;56357;52.304;4.870;2023-12-20T07:44:51;13.43;;;1.42;;
69244;SDS011;56357;52.304;4.870;2023-12-20T07:47:18;11.88;;;1.77;;
69244;SDS011;56357;52.304;4.870;2023-12-20T07:49:48;10.63;;;1.52;;
69244;SDS011;56357;52.304;4.870;2023-12-20T07:52:16;14.00;;;2.17;;
69244;SDS011;56357;52.304;4.870;2023-12-20T07:54:43;12.73;;;1.67;;
69244;SDS011;56357;52.304;4.870;2023-12-20T07:57:10;15.02;;;2.03;;
69244;SDS011;56357;52.304;4.870;2023-12-20T07:59:36;13.32;;;2.17;;
69244;SDS011;56357;52.304;4.870;2023-12-20T08:02:03;14.52;;;2.33;;
69244;SDS011;56357;52.304;4.870;2023-12-20T08:04:30;12.00;;;1.70;;
69244;SDS011;56357;52.304;4.870;2023-12-20T08:06:57;13.73;;;1.80;;
69244;SDS011;56357;52.304;4.870;2023-12-20T08:09:25;11.85;;;1.73;;
69244;SDS011;56357;52.304;4.870;2023-12-20T08:11:51;13.05;;;2.15;;
69244;SDS011;56357;52.304;4.870;2023-12-20T08:14:18;12.30;;;1.95;;
69244;SDS011;56357;52.304;4.870;2023-12-20T08:16:44;12.93;;;1.85;;
69244;SDS011;56357;52.304;4.870;2023-12-20T08:19:12;15.53;;;2.23;;
69244;SDS011;56357;52.304;4.870;2023-12-20T08:21:39;9.93;;;1.55;;
69244;SDS011;56357;52.304;4.870;2023-12-20T08:24:06;16.60;;;1.65;;
69244;SDS011;56357;52.304;4.870;2023-12-20T08:26:33;12.85;;;1.75;;
69244;SDS011;56357;52.304;4.870;2023-12-20T08:28:59;14.63;;;2.20;;
69244;SDS011;56357;52.304;4.870;2023-12-20T08:31:26;12.33;;;1.73;;
69244;SDS011;56357;52.304;4.870;2023-12-20T08:33:54;12.48;;;2.00;;
69244;SDS011;56357;52.304;4.870;2023-12-20T08:36:21;12.25;;;2.03;;
69244;SDS011;56357;52.304;4.870;2023-12-20T08:38:49;11.07;;;2.15;;
69244;SDS011;56357;52.304;4.870;2023-12-20T08:41:17;14.32;;;2.20;;
69244;SDS011;56357;52.304;4.870;2023-12-20T08:43:45;11.03;;;1.80;;
69244;SDS011;56357;52.304;4.870;2023-12-20T08:46:12;11.25;;;1.95;;
69244;SDS011;56357;52.304;4.870;2023-12-20T08:48:39;11.23;;;1.40;;
69244;SDS011;56357;52.304;4.870;2023-12-20T08:51:09;13.65;;;1.80;;
69244;SDS011;56357;52.304;4.870;2023-12-20T08:53:36;16.00;;;1.95;;
69244;SDS011;56357;52.304;4.870;2023-12-20T08:56:03;15.03;;;1.67;;
69244;SDS011;56357;52.304;4.870;2023-12-20T08:58:30;9.25;;;1.67;;
69244;SDS011;56357;52.304;4.870;2023-12-20T09:00:58;15.68;;;2.28;;
69244;SDS011;56357;52.304;4.870;2023-12-20T09:03:24;11.77;;;1.90;;
69244;SDS011;56357;52.304;4.870;2023-12-20T09:05:54;9.90;;;1.75;;
69244;SDS011;56357;52.304;4.870;2023-12-20T09:08:23;8.97;;;1.50;;
69244;SDS011;56357;52.304;4.870;2023-12-20T09:10:49;13.65;;;1.80;;
69244;SDS011;56357;52.304;4.870;2023-12-20T09:13:16;14.07;;;2.25;;
69244;SDS011;56357;52.304;4.870;2023-12-20T09:15:42;12.25;;;1.48;;
69244;SDS011;56357;52.304;4.870;2023-12-20T09:18:10;10.10;;;2.28;;
69244;SDS011;56357;52.304;4.870;2023-12-20T09:20:36;13.77;;;1.83;;
69244;SDS011;56357;52.304;4.870;2023-12-20T09:23:03;10.68;;;1.70;;
69244;SDS011;56357;52.304;4.870;2023-12-20T09:25:29;13.35;;;1.58;;
69244;SDS011;56357;52.304;4.870;2023-12-20T09:27:56;13.98;;;2.22;;
69244;SDS011;56357;52.304;4.870;2023-12-20T09:30:22;9.80;;;2.13;;
69244;SDS011;56357;52.304;4.870;2023-12-20T09:32:49;14.23;;;1.73;;
69244;SDS011;56357;52.304;4.870;2023-12-20T09:35:16;8.65;;;1.30;;
69244;SDS011;56357;52.304;4.870;2023-12-20T09:37:45;9.82;;;1.77;;
69244;SDS011;56357;52.304;4.870;2023-12-20T09:40:15;8.90;;;1.48;;
69244;SDS011;56357;52.304;4.870;2023-12-20T09:42:48;20.65;;;1.92;;
69244;SDS011;56357;52.304;4.870;2023-12-20T09:45:24;13.60;;;1.70;;
69244;SDS011;56357;52.304;4.870;2023-12-20T09:47:52;13.60;;;1.52;;
69244;SDS011;56357;52.304;4.870;2023-12-20T09:50:22;11.45;;;1.88;;
69244;SDS011;56357;52.304;4.870;2023-12-20T09:52:49;10.57;;;2.00;;
69244;SDS011;56357;52.304;4.870;2023-12-20T09:55:17;13.23;;;1.35;;
69244;SDS011;56357;52.304;4.870;2023-12-20T09:57:45;14.90;;;1.93;;
69244;SDS011;56357;52.304;4.870;2023-12-20T10:00:13;13.82;;;1.70;;
69244;SDS011;56357;52.304;4.870;2023-12-20T10:02:42;10.65;;;1.65;;
69244;SDS011;56357;52.304;4.870;2023-12-20T10:05:20;14.63;;;1.83;;
69244;SDS011;56357;52.304;4.870;2023-12-20T10:07:56;9.63;;;1.40;;
69244;SDS011;56357;52.304;4.870;2023-12-20T10:10:25;14.73;;;1.60;;
69244;SDS011;56357;52.304;4.870;2023-12-20T10:15:33;10.85;;;1.27;;
69244;SDS011;56357;52.304;4.870;2023-12-20T10:18:01;8.35;;;1.60;;
69244;SDS011;56357;52.304;4.870;2023-12-20T10:20:28;7.20;;;1.52;;
69244;SDS011;56357;52.304;4.870;2023-12-20T10:22:56;10.70;;;1.43;;
69244;SDS011;56357;52.304;4.870;2023-12-20T10:25:25;11.77;;;1.95;;
69244;SDS011;56357;52.304;4.870;2023-12-20T10:28:08;14.40;;;1.90;;
69244;SDS011;56357;52.304;4.870;2023-12-20T10:30:36;9.95;;;1.60;;
69244;SDS011;56357;52.304;4.870;2023-12-20T10:33:04;11.10;;;1.63;;
69244;SDS011;56357;52.304;4.870;2023-12-20T10:35:32;12.80;;;2.30;;
69244;SDS011;56357;52.304;4.870;2023-12-20T10:37:59;10.20;;;1.70;;
69244;SDS011;56357;52.304;4.870;2023-12-20T10:40:31;10.20;;;2.10;;
69244;SDS011;56357;52.304;4.870;2023-12-20T10:43:01;10.85;;;1.77;;
69244;SDS011;56357;52.304;4.870;2023-12-20T10:45:28;12.35;;;1.63;;
69244;SDS011;56357;52.304;4.870;2023-12-20T10:47:55;12.93;;;1.67;;
69244;SDS011;56357;52.304;4.870;2023-12-20T10:50:22;11.57;;;1.75;;
69244;SDS011;56357;52.304;4.870;2023-12-20T10:52:49;7.75;;;1.40;;
69244;SDS011;56357;52.304;4.870;2023-12-20T10:55:20;13.60;;;2.00;;
69244;SDS011;56357;52.304;4.870;2023-12-20T10:57:48;11.52;;;2.03;;
69244;SDS011;56357;52.304;4.870;2023-12-20T11:00:18;13.73;;;2.17;;
69244;SDS011;56357;52.304;4.870;2023-12-20T11:02:46;13.88;;;1.90;;
69244;SDS011;56357;52.304;4.870;2023-12-20T11:08:19;9.93;;;1.75;;
69244;SDS011;56357;52.304;4.870;2023-12-20T11:16:36;11.85;;;1.83;;
69244;SDS011;56357;52.304;4.870;2023-12-20T11:19:06;14.65;;;1.83;;
69244;SDS011;56357;52.304;4.870;2023-12-20T11:21:33;10.55;;;1.63;;
69244;SDS011;56357;52.304;4.870;2023-12-20T11:24:00;14.32;;;1.48;;
69244;SDS011;56357;52.304;4.870;2023-12-20T11:26:29;15.40;;;2.20;;
69244;SDS011;56357;52.304;4.870;2023-12-20T11:31:57;10.32;;;1.20;;
69244;SDS011;56357;52.304;4.870;2023-12-20T11:34:31;14.90;;;1.75;;
69244;SDS011;56357;52.304;4.870;2023-12-20T11:36:59;10.63;;;1.58;;
69244;SDS011;56357;52.304;4.870;2023-12-20T11:39:28;10.00;;;1.47;;
69244;SDS011;56357;52.304;4.870;2023-12-20T11:41:56;10.32;;;1.70;;
69244;SDS011;56357;52.304;4.870;2023-12-20T11:44:27;12.70;;;1.70;;
69244;SDS011;56357;52.304;4.870;2023-12-20T11:46:57;12.68;;;1.77;;
69244;SDS011;56357;52.304;4.870;2023-12-20T11:49:25;13.00;;;1.60;;
69244;SDS011;56357;52.304;4.870;2023-12-20T11:51:54;13.57;;;2.27;;
69244;SDS011;56357;52.304;4.870;2023-12-20T11:54:21;11.18;;;1.52;;
69244;SDS011;56357;52.304;4.870;2023-12-20T11:56:47;11.55;;;1.52;;
69244;SDS011;56357;52.304;4.870;2023-12-20T11:59:14;13.70;;;1.70;;
69244;SDS011;56357;52.304;4.870;2023-12-20T12:01:47;10.05;;;1.38;;
69244;SDS011;56357;52.304;4.870;2023-12-20T12:04:15;10.90;;;1.77;;
69244;SDS011;56357;52.304;4.870;2023-12-20T12:06:42;9.35;;;1.50;;
69244;SDS011;56357;52.304;4.870;2023-12-20T12:09:09;9.93;;;2.15;;
69244;SDS011;56357;52.304;4.870;2023-12-20T12:11:40;14.10;;;2.00;;
69244;SDS011;56357;52.304;4.870;2023-12-20T12:14:07;8.10;;;1.35;;
69244;SDS011;56357;52.304;4.870;2023-12-20T12:16:34;14.67;;;1.63;;
69244;SDS011;56357;52.304;4.870;2023-12-20T12:19:02;11.93;;;1.50;;
69244;SDS011;56357;52.304;4.870;2023-12-20T12:21:29;12.85;;;2.10;;
69244;SDS011;56357;52.304;4.870;2023-12-20T12:24:08;20.05;;;2.33;;
69244;SDS011;56357;52.304;4.870;2023-12-20T12:26:35;11.95;;;1.50;;
69244;SDS011;56357;52.304;4.870;2023-12-20T12:29:02;8.30;;;1.50;;
69244;SDS011;56357;52.304;4.870;2023-12-20T12:31:28;8.90;;;1.77;;
69244;SDS011;56357;52.304;4.870;2023-12-20T12:33:55;15.32;;;1.85;;
69244;SDS011;56357;52.304;4.870;2023-12-20T12:36:22;11.15;;;1.42;;
69244;SDS011;56357;52.304;4.870;2023-12-20T12:38:51;11.50;;;1.40;;
69244;SDS011;56357;52.304;4.870;2023-12-20T12:41:17;12.37;;;1.30;;
69244;SDS011;56357;52.304;4.870;2023-12-20T12:43:44;11.65;;;1.45;;
69244;SDS011;56357;52.304;4.870;2023-12-20T12:46:10;14.63;;;1.52;;
69244;SDS011;56357;52.304;4.870;2023-12-20T12:48:37;8.73;;;1.38;;
69244;SDS011;56357;52.304;4.870;2023-12-20T12:51:04;12.25;;;1.92;;
69244;SDS011;56357;52.304;4.870;2023-12-20T12:53:32;10.53;;;1.47;;
69244;SDS011;56357;52.304;4.870;2023-12-20T12:55:58;16.48;;;1.60;;
69244;SDS011;56357;52.304;4.870;2023-12-20T12:58:25;11.77;;;1.90;;
69244;SDS011;56357;52.304;4.870;2023-12-20T13:00:51;14.25;;;1.48;;
69244;SDS011;56357;52.304;4.870;2023-12-20T13:03:18;11.93;;;1.50;;
69244;SDS011;56357;52.304;4.870;2023-12-20T13:05:45;12.67;;;1.53;;
69244;SDS011;56357;52.304;4.870;2023-12-20T13:08:12;10.35;;;1.17;;
69244;SDS011;56357;52.304;4.870;2023-12-20T13:10:38;15.18;;;1.73;;
69244;SDS011;56357;52.304;4.870;2023-12-20T13:13:05;11.77;;;1.35;;
69244;SDS011;56357;52.304;4.870;2023-12-20T13:15:31;12.80;;;1.42;;
69244;SDS011;56357;52.304;4.870;2023-12-20T13:17:58;10.50;;;1.13;;
69244;SDS011;56357;52.304;4.870;2023-12-20T13:20:25;12.82;;;1.15;;
69244;SDS011;56357;52.304;4.870;2023-12-20T13:22:51;12.32;;;1.60;;
69244;SDS011;56357;52.304;4.870;2023-12-20T13:25:17;10.32;;;1.60;;
69244;SDS011;56357;52.304;4.870;2023-12-20T13:27:44;13.43;;;1.50;;
69244;SDS011;56357;52.304;4.870;2023-12-20T13:30:10;11.30;;;1.30;;
69244;SDS011;56357;52.304;4.870;2023-12-20T13:32:38;8.40;;;1.00;;
69244;SDS011;56357;52.304;4.870;2023-12-20T13:35:05;10.32;;;1.48;;
69244;SDS011;56357;52.304;4.870;2023-12-20T13:37:31;9.43;;;1.23;;
69244;SDS011;56357;52.304;4.870;2023-12-20T13:39:58;8.00;;;1.08;;
69244;SDS011;56357;52.304;4.870;2023-12-20T13:42:28;8.27;;;1.33;;
69244;SDS011;56357;52.304;4.870;2023-12-20T13:44:54;9.95;;;1.55;;
69244;SDS011;56357;52.304;4.870;2023-12-20T13:47:21;8.10;;;1.25;;
69244;SDS011;56357;52.304;4.870;2023-12-20T13:49:47;11.00;;;1.45;;
69244;SDS011;56357;52.304;4.870;2023-12-20T13:52:14;13.13;;;2.40;;
69244;SDS011;56357;52.304;4.870;2023-12-20T13:54:41;11.03;;;1.43;;
69244;SDS011;56357;52.304;4.870;2023-12-20T13:57:07;14.30;;;1.60;;
69244;SDS011;56357;52.304;4.870;2023-12-20T13:59:34;12.93;;;1.45;;
69244;SDS011;56357;52.304;4.870;2023-12-20T14:02:00;11.75;;;1.50;;
69244;SDS011;56357;52.304;4.870;2023-12-20T14:04:28;8.77;;;1.40;;
69244;SDS011;56357;52.304;4.870;2023-12-20T14:06:56;11.77;;;1.60;;
69244;SDS011;56357;52.304;4.870;2023-12-20T14:09:22;9.85;;;1.58;;
69244;SDS011;56357;52.304;4.870;2023-12-20T14:11:49;7.32;;;1.63;;
69244;SDS011;56357;52.304;4.870;2023-12-20T14:14:16;8.90;;;1.27;;
69244;SDS011;56357;52.304;4.870;2023-12-20T14:16:42;17.23;;;1.65;;
69244;SDS011;56357;52.304;4.870;2023-12-20T14:19:10;10.10;;;1.07;;
69244;SDS011;56357;52.304;4.870;2023-12-20T14:21:37;9.60;;;1.25;;
69244;SDS011;56357;52.304;4.870;2023-12-20T14:24:03;12.38;;;2.17;;
69244;SDS011;56357;52.304;4.870;2023-12-20T14:26:30;10.13;;;1.60;;
69244;SDS011;56357;52.304;4.870;2023-12-20T14:28:57;14.20;;;1.73;;
69244;SDS011;56357;52.304;4.870;2023-12-20T14:31:23;19.77;;;4.47;;
69244;SDS011;56357;52.304;4.870;2023-12-20T14:33:50;19.70;;;3.10;;
69244;SDS011;56357;52.304;4.870;2023-12-20T14:36:21;16.30;;;3.65;;
69244;SDS011;56357;52.304;4.870;2023-12-20T14:38:47;43.75;;;14.43;;
69244;SDS011;56357;52.304;4.870;2023-12-20T14:41:15;48.55;;;15.63;;
69244;SDS011;56357;52.304;4.870;2023-12-20T14:43:42;44.50;;;17.13;;
69244;SDS011;56357;52.304;4.870;2023-12-20T14:46:08;44.40;;;14.27;;
69244;SDS011;56357;52.304;4.870;2023-12-20T14:48:35;37.17;;;12.20;;
69244;SDS011;56357;52.304;4.870;2023-12-20T14:51:01;32.13;;;11.27;;
69244;SDS011;56357;52.304;4.870;2023-12-20T14:53:28;32.63;;;10.93;;
69244;SDS011;56357;52.304;4.870;2023-12-20T14:55:54;23.17;;;9.07;;